Terminal Aerodrome Forecast
Issued by NWS Portland, OR

Home | Current Version | Previous Version | Text Only | Print | Product List | Glossary On
Versions: 1 2 3 4 5 6 7 8 9 10 11 12 13 14 15 16 17 18 19 20 21 22 23 24 25 26 27 28 29
163
FTUS46 KPQR 120710 AAA
TAFTTD
TAF AMD
KTTD 120710Z 1207/1306 09015G25KT P6SM VCSH SCT050 OVC080
     FM121600 10010KT 4SM -RA BR OVC050
     FM122100 16008KT 4SM -RA BR OVC050
     FM130000 22005KT P6SM -RA OVC050
     FM130400 23002KT P6SM OVC100=

USA.gov is the U.S. government's official web portal to all federal, state and local government web resources and services.